Time;durP1;ratioP1;P1;durP2;ratioP2;P2;SDS_P1;SDS_P2;PMS_P1;PMS_P2;Temp;Humidity;BMP_temperature;BMP_pressure;BME280_temperature;BME280_humidity;BME280_pressure;Samples;Min_cycle;Max_cycle;Signal;HPM_P1;HPM_P2
2022/09/15 00:01:37;;;;;;;;;;;;;;;;;;5094181;28;20303;-50
2022/09/15 00:04:04;;;;;;;;;;;;;;;;;;5091864;28;19924;-45
2022/09/15 00:06:32;;;;;;;;;;;;;;;;;;5093975;28;19924;-45
2022/09/15 00:08:59;;;;;;;;;;;;;;;;;;5093886;28;19924;-49
2022/09/15 00:11:30;;;;;;;;;;;;;;;;;;5094072;28;19983;-47
2022/09/15 00:13:59;;;;;;;;;;;;;;;;;;5093823;28;19931;-42
2022/09/15 00:16:27;;;;;;;;;;;;;;;;;;5093193;28;20326;-45
2022/09/15 00:18:55;;;;;;;;;;;;;;;;;;5093445;28;19924;-47
2022/09/15 00:21:24;;;;;;;;;;;;;;;;;;5093217;28;19930;-44
2022/09/15 00:23:52;;;;;;;;;;;;;;;;;;5093824;28;19924;-49
2022/09/15 00:26:21;;;;;;;;;;;;;;;;;;5093514;28;19931;-49
2022/09/15 00:28:48;;;;;;;;;;;;;;;;;;5093497;28;20276;-49
2022/09/15 00:31:17;;;;;;;;;;;;;;;;;;5093280;28;19928;-46
2022/09/15 00:33:48;;;;;;;;;;;;;;;;;;5093787;28;20295;-42
2022/09/15 00:36:16;;;;;;;;;;;;;;;;;;5092828;28;19967;-45
2022/09/15 00:38:43;;;;;;;;;;;;;;;;;;5093209;28;19924;-45
2022/09/15 00:41:12;;;;;;;;;;;;;;;;;;5093484;28;20303;-47
2022/09/15 00:43:43;;;;;;;;;;;;;;;;;;5093236;28;19951;-48
2022/09/15 00:46:10;;;;;;;;;;;;;;;;;;5093113;28;19932;-46
2022/09/15 00:48:39;;;;;;;;;;;;;;;;;;5093297;28;20333;-46
2022/09/15 00:51:09;;;;;;;;;;;;;;;;;;5092953;28;19924;-48
2022/09/15 00:53:36;;;;;;;;;;;;;;;;;;5093154;28;19924;-47
2022/09/15 00:56:06;;;;;;;;;;;;;;;;;;5092835;28;20328;-50
2022/09/15 00:58:39;;;;;;;;;;;;;;;;;;5092681;28;19942;-49
2022/09/15 01:01:07;;;;;;;;;;;;;;;;;;5093187;28;19924;-47
2022/09/15 01:03:35;;;;;;;;;;;;;;;;;;5092711;28;19924;-45
2022/09/15 01:06:29;;;;;;;;;;;;;;;;;;5092864;28;19928;-43
2022/09/15 01:08:56;;;;;;;;;;;;;;;;;;5090889;28;19928;-46
2022/09/15 01:11:24;;;;;;;;;;;;;;;;;;5093048;28;20345;-45
2022/09/15 01:13:51;;;;;;;;;;;;;;;;;;5092717;28;19998;-44
2022/09/15 01:16:25;;;;;;;;;;;;;;;;;;5092966;28;19924;-46
2022/09/15 01:19:11;;;;;;;;;;;;;;;;;;5092626;28;20432;-49
2022/09/15 01:21:41;;;;;;;;;;;;;;;;;;5092924;28;20011;-45
2022/09/15 01:24:23;;;;;;;;;;;;;;;;;;5092473;28;19924;-42
2022/09/15 01:27:09;;;;;;;;;;;;;;;;;;5092210;28;20446;-48
2022/09/15 01:30:07;;;;;;;;;;;;;;;;;;5092410;28;20007;-49
2022/09/15 01:35:45;;;;;;;;;;;;;;;;;;5092259;28;19925;-46
2022/09/15 01:38:18;;;;;;;;;;;;;;;;;;5092368;28;19967;-42
2022/09/15 01:41:05;;;;;;;;;;;;;;;;;;5092457;28;20272;-42
2022/09/15 01:43:34;;;;;;;;;;;;;;;;;;5092457;28;19928;-43
2022/09/15 01:46:02;;;;;;;;;;;;;;;;;;5092315;28;19928;-42
2022/09/15 01:48:30;;;;;;;;;;;;;;;;;;5092138;28;19924;-43
2022/09/15 01:50:59;;;;;;;;;;;;;;;;;;5092210;28;20461;-41
2022/09/15 01:53:27;;;;;;;;;;;;;;;;;;5092071;28;20454;-44
2022/09/15 01:55:59;;;;;;;;;;;;;;;;;;5092053;28;20351;-43
2022/09/15 01:58:27;;;;;;;;;;;;;;;;;;5091990;28;19924;-48
2022/09/15 02:00:58;;;;;;;;;;;;;;;;;;5091820;28;19934;-41
2022/09/15 02:03:45;;;;;;;;;;;;;;;;;;5091851;28;20299;-43
2022/09/15 02:06:18;;;;;;;;;;;;;;;;;;5092283;28;19928;-46
2022/09/15 02:08:57;;;;;;;;;;;;;;;;;;5091747;28;19924;-43
2022/09/15 02:11:26;;;;;;;;;;;;;;;;;;5091977;28;20367;-41
2022/09/15 02:14:19;;;;;;;;;;;;;;;;;;5090678;28;20010;-41
2022/09/15 02:16:48;;;;;;;;;;;;;;;;;;5089748;28;20375;-41
2022/09/15 02:19:48;;;;;;;;;;;;;;;;;;5092223;28;19924;-41
2022/09/15 02:22:45;;;;;;;;;;;;;;;;;;5080011;28;19924;-40
2022/09/15 02:25:19;;;;;;;;;;;;;;;;;;5087396;28;19924;-43
2022/09/15 02:27:50;;;;;;;;;;;;;;;;;;5091719;28;20311;-42
2022/09/15 02:30:18;;;;;;;;;;;;;;;;;;5085536;28;20327;-46
2022/09/15 02:32:48;;;;;;;;;;;;;;;;;;5071759;28;20361;-42
2022/09/15 02:35:16;;;;;;;;;;;;;;;;;;5071867;28;20384;-42
2022/09/15 02:37:44;;;;;;;;;;;;;;;;;;5071659;28;19929;-41
2022/09/15 02:40:11;;;;;;;;;;;;;;;;;;5074373;28;19940;-45
2022/09/15 02:42:39;;;;;;;;;;;;;;;;;;5074971;28;20770;-42
2022/09/15 02:45:06;;;;;;;;;;;;;;;;;;5074905;28;20384;-47
2022/09/15 02:47:33;;;;;;;;;;;;;;;;;;5075231;28;19931;-45
2022/09/15 02:50:01;;;;;;;;;;;;;;;;;;5075186;28;19924;-41
2022/09/15 02:52:28;;;;;;;;;;;;;;;;;;5075164;28;19963;-44
2022/09/15 02:54:55;;;;;;;;;;;;;;;;;;5074824;28;20018;-43
2022/09/15 02:57:23;;;;;;;;;;;;;;;;;;5075363;28;19930;-43
2022/09/15 03:02:36;;;;;;;;;;;;;;;;;;5075014;28;19925;-42
2022/09/15 03:05:04;;;;;;;;;;;;;;;;;;5093409;28;20481;-42
2022/09/15 03:07:31;;;;;;;;;;;;;;;;;;5094904;28;19924;-41
2022/09/15 03:09:58;;;;;;;;;;;;;;;;;;5094735;28;19968;-41
2022/09/15 03:12:25;;;;;;;;;;;;;;;;;;5095019;28;20011;-42
2022/09/15 03:14:53;;;;;;;;;;;;;;;;;;5095103;28;20018;-43
2022/09/15 03:17:20;;;;;;;;;;;;;;;;;;5094932;28;20010;-41
2022/09/15 03:19:49;;;;;;;;;;;;;;;;;;5094822;28;19924;-41
2022/09/15 03:22:16;;;;;;;;;;;;;;;;;;5095161;28;20014;-41
2022/09/15 03:24:44;;;;;;;;;;;;;;;;;;5095145;28;20379;-48
2022/09/15 03:27:11;;;;;;;;;;;;;;;;;;5093858;28;20026;-41
2022/09/15 03:29:38;;;;;;;;;;;;;;;;;;5094949;28;19928;-42
2022/09/15 03:32:05;;;;;;;;;;;;;;;;;;5094683;28;19924;-41
2022/09/15 03:34:33;;;;;;;;;;;;;;;;;;5094564;28;20014;-42
2022/09/15 03:37:00;;;;;;;;;;;;;;;;;;5094411;28;19928;-43
2022/09/15 03:39:28;;;;;;;;;;;;;;;;;;5094554;28;19931;-41
2022/09/15 03:41:58;;;;;;;;;;;;;;;;;;5094267;28;19924;-41
2022/09/15 03:44:26;;;;;;;;;;;;;;;;;;5094537;28;20015;-43
2022/09/15 03:46:53;;;;;;;;;;;;;;;;;;5093122;28;20439;-46
2022/09/15 03:49:21;;;;;;;;;;;;;;;;;;5094247;28;19981;-42
2022/09/15 03:51:48;;;;;;;;;;;;;;;;;;5093660;28;19985;-40
2022/09/15 03:54:16;;;;;;;;;;;;;;;;;;5094298;28;20391;-42
2022/09/15 03:56:46;;;;;;;;;;;;;;;;;;5094275;28;19930;-41
2022/09/15 03:59:14;;;;;;;;;;;;;;;;;;5094274;28;20302;-41
2022/09/15 04:01:42;;;;;;;;;;;;;;;;;;5093730;28;19925;-42
2022/09/15 04:04:09;;;;;;;;;;;;;;;;;;5094195;28;20018;-43
2022/09/15 04:06:37;;;;;;;;;;;;;;;;;;5094002;28;19932;-41
2022/09/15 04:09:04;;;;;;;;;;;;;;;;;;5093530;28;20387;-42
2022/09/15 04:11:32;;;;;;;;;;;;;;;;;;5094057;28;20445;-42
2022/09/15 04:13:59;;;;;;;;;;;;;;;;;;5093404;28;20031;-42
2022/09/15 04:16:27;;;;;;;;;;;;;;;;;;5093976;28;20408;-42
2022/09/15 04:18:54;;;;;;;;;;;;;;;;;;5093808;28;19924;-42
2022/09/15 04:21:23;;;;;;;;;;;;;;;;;;5093403;28;20014;-41
2022/09/15 04:23:50;;;;;;;;;;;;;;;;;;5093636;28;19951;-42
2022/09/15 04:26:20;;;;;;;;;;;;;;;;;;5094077;28;19969;-41
2022/09/15 04:28:47;;;;;;;;;;;;;;;;;;5093895;28;19924;-42
2022/09/15 04:31:15;;;;;;;;;;;;;;;;;;5093523;28;19930;-42
2022/09/15 04:33:43;;;;;;;;;;;;;;;;;;5093135;28;20272;-43
2022/09/15 04:36:12;;;;;;;;;;;;;;;;;;5092995;28;19928;-44
2022/09/15 04:38:40;;;;;;;;;;;;;;;;;;5093046;28;19924;-42
2022/09/15 04:41:08;;;;;;;;;;;;;;;;;;5093105;28;19924;-42
2022/09/15 04:43:36;;;;;;;;;;;;;;;;;;5092964;28;19928;-48
2022/09/15 04:46:04;;;;;;;;;;;;;;;;;;5092965;28;20069;-48
2022/09/15 04:48:34;;;;;;;;;;;;;;;;;;5093360;28;19924;-45
2022/09/15 04:51:03;;;;;;;;;;;;;;;;;;5093209;28;20008;-43
2022/09/15 04:53:30;;;;;;;;;;;;;;;;;;5093098;28;20356;-43
2022/09/15 04:56:01;;;;;;;;;;;;;;;;;;5091410;28;19938;-43
2022/09/15 04:58:29;;;;;;;;;;;;;;;;;;5093261;28;19932;-47
2022/09/15 05:00:56;;;;;;;;;;;;;;;;;;5092928;28;19974;-42
2022/09/15 05:03:26;;;;;;;;;;;;;;;;;;5087068;28;20312;-42
2022/09/15 05:05:56;;;;;;;;;;;;;;;;;;5072492;28;19995;-44
2022/09/15 05:08:24;;;;;;;;;;;;;;;;;;5072381;28;20303;-43
2022/09/15 05:10:52;;;;;;;;;;;;;;;;;;5072885;28;19931;-42
2022/09/15 05:13:19;;;;;;;;;;;;;;;;;;5072557;28;19924;-44
2022/09/15 05:15:46;;;;;;;;;;;;;;;;;;5072274;28;20319;-43
2022/09/15 05:18:14;;;;;;;;;;;;;;;;;;5072301;28;19928;-43
2022/09/15 05:20:41;;;;;;;;;;;;;;;;;;5072366;28;20303;-43
2022/09/15 05:23:09;;;;;;;;;;;;;;;;;;5072449;28;20414;-43
2022/09/15 05:25:41;;;;;;;;;;;;;;;;;;5072000;28;19925;-43
2022/09/15 05:28:41;;;;;;;;;;;;;;;;;;5072568;28;19924;-51
2022/09/15 05:31:16;;;;;;;;;;;;;;;;;;5071945;28;20011;-44
2022/09/15 05:33:44;;;;;;;;;;;;;;;;;;5072413;28;19925;-42
2022/09/15 05:36:16;;;;;;;;;;;;;;;;;;5071961;28;19976;-43
2022/09/15 05:38:43;;;;;;;;;;;;;;;;;;5072073;28;19936;-42
2022/09/15 05:41:12;;;;;;;;;;;;;;;;;;5071950;28;19924;-41
2022/09/15 05:43:39;;;;;;;;;;;;;;;;;;5072066;28;19924;-43
2022/09/15 05:46:07;;;;;;;;;;;;;;;;;;5071880;28;19965;-43
2022/09/15 05:48:35;;;;;;;;;;;;;;;;;;5070314;28;19932;-42
2022/09/15 05:51:02;;;;;;;;;;;;;;;;;;5071878;28;19924;-45
2022/09/15 05:53:30;;;;;;;;;;;;;;;;;;5071927;28;19968;-43
2022/09/15 05:55:58;;;;;;;;;;;;;;;;;;5072281;28;19924;-43
2022/09/15 05:58:25;;;;;;;;;;;;;;;;;;5071692;28;19924;-44
2022/09/15 06:00:53;;;;;;;;;;;;;;;;;;5072338;28;19924;-42
2022/09/15 06:03:22;;;;;;;;;;;;;;;;;;5076781;28;20283;-43
2022/09/15 06:06:00;;;;;;;;;;;;;;;;;;5092096;28;19932;-41
2022/09/15 06:08:35;;;;;;;;;;;;;;;;;;5091598;28;19924;-43
2022/09/15 06:11:03;;;;;;;;;;;;;;;;;;5092285;28;19935;-41
2022/09/15 06:13:31;;;;;;;;;;;;;;;;;;5092746;28;19987;-43
2022/09/15 06:16:03;;;;;;;;;;;;;;;;;;5095894;28;19938;-43
2022/09/15 06:18:31;;;;;;;;;;;;;;;;;;5096219;28;20027;-42
2022/09/15 06:21:02;;;;;;;;;;;;;;;;;;5096284;28;19924;-43
2022/09/15 06:23:29;;;;;;;;;;;;;;;;;;5095287;28;19924;-46
2022/09/15 06:26:02;;;;;;;;;;;;;;;;;;5094259;28;19924;-43
2022/09/15 06:28:29;;;;;;;;;;;;;;;;;;5094621;28;19932;-42
2022/09/15 06:30:56;;;;;;;;;;;;;;;;;;5094473;28;19928;-42
2022/09/15 06:33:24;;;;;;;;;;;;;;;;;;5092949;28;20529;-45
2022/09/15 06:35:51;;;;;;;;;;;;;;;;;;5094407;28;20015;-42
2022/09/15 06:38:18;;;;;;;;;;;;;;;;;;5094173;28;20003;-42
2022/09/15 06:41:06;;;;;;;;;;;;;;;;;;5093968;28;20264;-46
2022/09/15 06:43:33;;;;;;;;;;;;;;;;;;5093849;28;19928;-43
2022/09/15 06:46:05;;;;;;;;;;;;;;;;;;5093807;28;20476;-42
2022/09/15 06:48:32;;;;;;;;;;;;;;;;;;5093889;28;19928;-42
2022/09/15 06:51:00;;;;;;;;;;;;;;;;;;5093820;28;20391;-42
2022/09/15 06:53:31;;;;;;;;;;;;;;;;;;5093857;28;19946;-43
2022/09/15 06:56:18;;;;;;;;;;;;;;;;;;5093974;28;20017;-43
2022/09/15 06:58:48;;;;;;;;;;;;;;;;;;5094043;28;20007;-43
2022/09/15 07:01:26;;;;;;;;;;;;;;;;;;5093277;28;20398;-42
2022/09/15 07:03:55;;;;;;;;;;;;;;;;;;5093219;28;20040;-42
2022/09/15 07:06:22;;;;;;;;;;;;;;;;;;5093492;28;20466;-46
2022/09/15 07:08:50;;;;;;;;;;;;;;;;;;5093797;28;20272;-42
2022/09/15 07:11:17;;;;;;;;;;;;;;;;;;5093812;28;19924;-44
2022/09/15 07:13:46;;;;;;;;;;;;;;;;;;5093607;28;19928;-42
2022/09/15 07:16:13;;;;;;;;;;;;;;;;;;5093348;28;19934;-51
2022/09/15 07:18:41;;;;;;;;;;;;;;;;;;5093597;28;19924;-46
2022/09/15 07:21:13;;;;;;;;;;;;;;;;;;5094797;28;19927;-42
2022/09/15 07:23:40;;;;;;;;;;;;;;;;;;5094492;28;19924;-46
2022/09/15 07:26:10;;;;;;;;;;;;;;;;;;5093633;28;19951;-47
2022/09/15 07:28:37;;;;;;;;;;;;;;;;;;5094699;28;19924;-43
2022/09/15 07:31:05;;;;;;;;;;;;;;;;;;5094323;28;19938;-42
2022/09/15 07:33:33;;;;;;;;;;;;;;;;;;5095007;28;19942;-43
2022/09/15 07:36:01;;;;;;;;;;;;;;;;;;5094846;28;20376;-46
2022/09/15 07:38:29;;;;;;;;;;;;;;;;;;5094546;28;19924;-48
2022/09/15 07:41:03;;;;;;;;;;;;;;;;;;5094752;28;19955;-46
2022/09/15 07:43:30;;;;;;;;;;;;;;;;;;5093793;28;19924;-45
2022/09/15 07:46:01;;;;;;;;;;;;;;;;;;5094305;28;20322;-44
2022/09/15 07:48:28;;;;;;;;;;;;;;;;;;5094011;28;20353;-47
2022/09/15 07:50:55;;;;;;;;;;;;;;;;;;5093939;28;19928;-42
2022/09/15 07:53:23;;;;;;;;;;;;;;;;;;5094275;28;20019;-42
2022/09/15 07:55:54;;;;;;;;;;;;;;;;;;5093295;28;20447;-42
2022/09/15 07:58:22;;;;;;;;;;;;;;;;;;5094352;28;19993;-43
2022/09/15 08:00:49;;;;;;;;;;;;;;;;;;5093917;28;20448;-44
2022/09/15 08:03:17;;;;;;;;;;;;;;;;;;5092827;28;20016;-47
2022/09/15 08:05:44;;;;;;;;;;;;;;;;;;5094298;28;19925;-43
2022/09/15 08:08:12;;;;;;;;;;;;;;;;;;5093666;28;20322;-45
2022/09/15 08:10:40;;;;;;;;;;;;;;;;;;5093881;28;19928;-42
2022/09/15 08:13:07;;;;;;;;;;;;;;;;;;5093856;28;19930;-50
2022/09/15 08:15:36;;;;;;;;;;;;;;;;;;5093182;28;19946;-44
2022/09/15 08:18:04;;;;;;;;;;;;;;;;;;5093649;28;20010;-46
2022/09/15 08:20:31;;;;;;;;;;;;;;;;;;5093522;28;19964;-47
2022/09/15 08:22:59;;;;;;;;;;;;;;;;;;5093423;28;19947;-43
2022/09/15 08:25:26;;;;;;;;;;;;;;;;;;5093722;28;20310;-42
2022/09/15 08:27:55;;;;;;;;;;;;;;;;;;5093568;28;20011;-47
2022/09/15 08:30:22;;;;;;;;;;;;;;;;;;5093710;28;19928;-43
2022/09/15 08:32:50;;;;;;;;;;;;;;;;;;5093529;28;19956;-45
2022/09/15 08:35:18;;;;;;;;;;;;;;;;;;5081766;28;19931;-44
2022/09/15 08:37:46;;;;;;;;;;;;;;;;;;5088369;28;19928;-42
2022/09/15 08:40:18;;;;;;;;;;;;;;;;;;5093248;28;19932;-45
2022/09/15 08:42:46;;;;;;;;;;;;;;;;;;5093487;28;19931;-44
2022/09/15 08:45:19;;;;;;;;;;;;;;;;;;5093525;28;19972;-42
2022/09/15 08:47:47;;;;;;;;;;;;;;;;;;5093126;28;19978;-44
2022/09/15 08:50:30;;;;;;;;;;;;;;;;;;5093417;28;19932;-44
2022/09/15 08:52:57;;;;;;;;;;;;;;;;;;5093078;28;20337;-43
2022/09/15 08:55:30;;;;;;;;;;;;;;;;;;5093127;28;20433;-42
2022/09/15 08:57:57;;;;;;;;;;;;;;;;;;5093054;28;20002;-44
2022/09/15 09:00:25;;;;;;;;;;;;;;;;;;5093484;28;20299;-46
2022/09/15 09:03:12;;;;;;;;;;;;;;;;;;5092244;28;20375;-50
2022/09/15 09:05:45;;;;;;;;;;;;;;;;;;5093178;28;19924;-43
2022/09/15 09:08:30;;;;;;;;;;;;;;;;;;5092943;28;19931;-46
2022/09/15 09:11:03;;;;;;;;;;;;;;;;;;5093120;28;19924;-45
2022/09/15 09:13:33;;;;;;;;;;;;;;;;;;5093206;28;19964;-45
2022/09/15 09:16:10;;;;;;;;;;;;;;;;;;5092890;28;19978;-44
2022/09/15 09:18:45;;;;;;;;;;;;;;;;;;5093040;28;20387;-44
2022/09/15 09:21:30;;;;;;;;;;;;;;;;;;5092914;28;19935;-43
2022/09/15 09:24:00;;;;;;;;;;;;;;;;;;5092960;28;19928;-47
2022/09/15 09:26:29;;;;;;;;;;;;;;;;;;5092971;28;19924;-44
2022/09/15 09:28:58;;;;;;;;;;;;;;;;;;5093039;28;19928;-43
2022/09/15 09:31:27;;;;;;;;;;;;;;;;;;5092859;28;19960;-44
2022/09/15 09:33:54;;;;;;;;;;;;;;;;;;5092879;28;19978;-43
2022/09/15 09:36:22;;;;;;;;;;;;;;;;;;5093014;28;19924;-49
2022/09/15 09:38:49;;;;;;;;;;;;;;;;;;5092940;28;20358;-44
2022/09/15 09:41:18;;;;;;;;;;;;;;;;;;5092443;28;19928;-43
2022/09/15 09:43:46;;;;;;;;;;;;;;;;;;5092671;28;19924;-44
2022/09/15 09:46:16;;;;;;;;;;;;;;;;;;5092605;28;20343;-45
2022/09/15 09:49:03;;;;;;;;;;;;;;;;;;5091517;28;20359;-45
2022/09/15 09:51:51;;;;;;;;;;;;;;;;;;5092644;28;19931;-43
2022/09/15 09:54:20;;;;;;;;;;;;;;;;;;5092775;28;20023;-43
2022/09/15 09:56:48;;;;;;;;;;;;;;;;;;5092549;28;20025;-43
2022/09/15 09:59:33;;;;;;;;;;;;;;;;;;5092461;28;19973;-44
2022/09/15 10:02:09;;;;;;;;;;;;;;;;;;5092216;28;19924;-44
2022/09/15 10:04:41;;;;;;;;;;;;;;;;;;5092480;28;20003;-43
2022/09/15 10:07:08;;;;;;;;;;;;;;;;;;5092430;28;20010;-43
2022/09/15 10:09:36;;;;;;;;;;;;;;;;;;5092357;28;19924;-47
2022/09/15 10:12:04;;;;;;;;;;;;;;;;;;5092182;28;19924;-43
2022/09/15 10:14:34;;;;;;;;;;;;;;;;;;5092376;28;19924;-44
2022/09/15 10:17:05;;;;;;;;;;;;;;;;;;5092441;28;19966;-44
2022/09/15 10:19:35;;;;;;;;;;;;;;;;;;5092095;28;19979;-44
2022/09/15 10:22:03;;;;;;;;;;;;;;;;;;5092067;28;20399;-44
2022/09/15 10:24:40;;;;;;;;;;;;;;;;;;5091845;28;20323;-43
2022/09/15 10:27:15;;;;;;;;;;;;;;;;;;5092183;28;19924;-43
2022/09/15 10:29:43;;;;;;;;;;;;;;;;;;5092187;28;19932;-48
2022/09/15 10:32:30;;;;;;;;;;;;;;;;;;5092094;28;20352;-43
2022/09/15 10:34:59;;;;;;;;;;;;;;;;;;5092252;28;19994;-48
2022/09/15 10:37:29;;;;;;;;;;;;;;;;;;5092082;28;20295;-45
2022/09/15 10:40:04;;;;;;;;;;;;;;;;;;5091974;28;19924;-43
2022/09/15 10:42:35;;;;;;;;;;;;;;;;;;5091995;28;19924;-48
2022/09/15 10:45:09;;;;;;;;;;;;;;;;;;5092204;28;19924;-46
2022/09/15 10:47:45;;;;;;;;;;;;;;;;;;5092078;28;19927;-45
2022/09/15 10:50:20;;;;;;;;;;;;;;;;;;5091943;28;19968;-43
2022/09/15 10:53:00;;;;;;;;;;;;;;;;;;5090562;28;19924;-47
2022/09/15 10:56:02;;;;;;;;;;;;;;;;;;5092030;28;19935;-44
2022/09/15 10:58:49;;;;;;;;;;;;;;;;;;5069538;28;19946;-45
2022/09/15 11:01:46;;;;;;;;;;;;;;;;;;5093670;28;20399;-46
2022/09/15 11:04:32;;;;;;;;;;;;;;;;;;5090754;28;20015;-46
2022/09/15 11:07:10;;;;;;;;;;;;;;;;;;5095496;28;19970;-44
2022/09/15 11:09:41;;;;;;;;;;;;;;;;;;5094047;28;20388;-44
2022/09/15 11:12:15;;;;;;;;;;;;;;;;;;5095206;28;19924;-45
2022/09/15 11:14:50;;;;;;;;;;;;;;;;;;5095562;28;19928;-45
2022/09/15 11:17:35;;;;;;;;;;;;;;;;;;5095288;28;19958;-43
2022/09/15 11:20:02;;;;;;;;;;;;;;;;;;5094927;28;19928;-43
2022/09/15 11:22:35;;;;;;;;;;;;;;;;;;5095105;28;19924;-43
2022/09/15 11:25:10;;;;;;;;;;;;;;;;;;5095111;28;20288;-44
2022/09/15 11:27:43;;;;;;;;;;;;;;;;;;5094720;28;19924;-43
2022/09/15 11:30:13;;;;;;;;;;;;;;;;;;5095020;28;20322;-44
2022/09/15 11:32:41;;;;;;;;;;;;;;;;;;5095082;28;19924;-44
2022/09/15 11:35:20;;;;;;;;;;;;;;;;;;5094965;28;19967;-44
2022/09/15 11:37:49;;;;;;;;;;;;;;;;;;5094823;28;19928;-43
2022/09/15 11:40:16;;;;;;;;;;;;;;;;;;5094606;28;20487;-43
2022/09/15 11:42:53;;;;;;;;;;;;;;;;;;5094596;28;19924;-51
2022/09/15 11:45:34;;;;;;;;;;;;;;;;;;5094958;28;19963;-40
2022/09/15 11:48:13;;;;;;;;;;;;;;;;;;5094426;28;19924;-43
2022/09/15 11:50:44;;;;;;;;;;;;;;;;;;5094798;28;19928;-44
2022/09/15 11:53:23;;;;;;;;;;;;;;;;;;5094273;28;20424;-44
2022/09/15 11:55:59;;;;;;;;;;;;;;;;;;5094809;28;20384;-43
2022/09/15 11:58:26;;;;;;;;;;;;;;;;;;5094549;28;19925;-47
2022/09/15 12:01:11;;;;;;;;;;;;;;;;;;5094599;28;19930;-44
2022/09/15 12:03:44;;;;;;;;;;;;;;;;;;5094046;28;19941;-43
2022/09/15 12:06:17;;;;;;;;;;;;;;;;;;5094179;28;20397;-44
2022/09/15 12:08:48;;;;;;;;;;;;;;;;;;5094182;28;20617;-46
2022/09/15 12:11:19;;;;;;;;;;;;;;;;;;5093274;28;19989;-43
2022/09/15 12:13:47;;;;;;;;;;;;;;;;;;5094138;28;19931;-48
2022/09/15 12:16:15;;;;;;;;;;;;;;;;;;5094077;28;19928;-43
2022/09/15 12:19:01;;;;;;;;;;;;;;;;;;5094095;28;19924;-43
2022/09/15 12:21:38;;;;;;;;;;;;;;;;;;5093954;28;20724;-43
2022/09/15 12:24:24;;;;;;;;;;;;;;;;;;5093823;28;20391;-45
2022/09/15 12:26:52;;;;;;;;;;;;;;;;;;5094135;28;19947;-43
2022/09/15 12:29:25;;;;;;;;;;;;;;;;;;5094017;28;19963;-43
2022/09/15 12:32:11;;;;;;;;;;;;;;;;;;5073594;28;19932;-42
2022/09/15 12:34:38;;;;;;;;;;;;;;;;;;5073736;28;19935;-46
2022/09/15 12:37:16;;;;;;;;;;;;;;;;;;5073172;28;19954;-43
2022/09/15 12:39:47;;;;;;;;;;;;;;;;;;5073504;28;20311;-42
2022/09/15 12:42:20;;;;;;;;;;;;;;;;;;5073181;28;19928;-43
2022/09/15 12:44:50;;;;;;;;;;;;;;;;;;5073188;28;20016;-47
2022/09/15 12:47:17;;;;;;;;;;;;;;;;;;5073330;28;19924;-44
2022/09/15 12:49:45;;;;;;;;;;;;;;;;;;5073314;28;20004;-44
2022/09/15 12:52:12;;;;;;;;;;;;;;;;;;5073121;28;20015;-51
2022/09/15 12:54:41;;;;;;;;;;;;;;;;;;5073165;28;20470;-43
2022/09/15 12:57:38;;;;;;;;;;;;;;;;;;5073092;28;20478;-43
2022/09/15 13:00:15;;;;;;;;;;;;;;;;;;5072626;28;20383;-43
2022/09/15 13:02:44;;;;;;;;;;;;;;;;;;5072681;28;20019;-43
2022/09/15 13:05:13;;;;;;;;;;;;;;;;;;5073055;28;19928;-43
2022/09/15 13:07:56;;;;;;;;;;;;;;;;;;5072748;28;20345;-43
2022/09/15 13:10:26;;;;;;;;;;;;;;;;;;5073159;28;19924;-46
2022/09/15 13:13:14;;;;;;;;;;;;;;;;;;5072944;28;19931;-46
2022/09/15 13:15:46;;;;;;;;;;;;;;;;;;5072830;28;20388;-48
2022/09/15 13:18:14;;;;;;;;;;;;;;;;;;5075132;28;19924;-44
2022/09/15 13:20:50;;;;;;;;;;;;;;;;;;5093113;28;19932;-48
2022/09/15 13:23:22;;;;;;;;;;;;;;;;;;5092774;28;19924;-42
2022/09/15 13:25:52;;;;;;;;;;;;;;;;;;5093005;28;19924;-43
2022/09/15 13:28:20;;;;;;;;;;;;;;;;;;5092733;28;20011;-43
2022/09/15 13:31:07;;;;;;;;;;;;;;;;;;5092806;28;20333;-43
2022/09/15 13:34:02;;;;;;;;;;;;;;;;;;5092800;28;19928;-44
2022/09/15 13:37:08;;;;;;;;;;;;;;;;;;5092480;28;20450;-48
2022/09/15 13:40:25;;;;;;;;;;;;;;;;;;5092666;28;19924;-41
2022/09/15 13:42:53;;;;;;;;;;;;;;;;;;5083992;28;19973;-43
2022/09/15 13:45:32;;;;;;;;;;;;;;;;;;5092739;28;19928;-47
2022/09/15 13:48:12;;;;;;;;;;;;;;;;;;5092625;28;19924;-43
2022/09/15 13:50:41;;;;;;;;;;;;;;;;;;5092561;28;20295;-44
2022/09/15 13:53:20;;;;;;;;;;;;;;;;;;5092549;28;20307;-43
2022/09/15 13:55:48;;;;;;;;;;;;;;;;;;5092457;28;19955;-43
2022/09/15 13:58:17;;;;;;;;;;;;;;;;;;5092619;28;20784;-44
2022/09/15 14:01:05;;;;;;;;;;;;;;;;;;5092463;28;19931;-43
2022/09/15 14:03:35;;;;;;;;;;;;;;;;;;5092618;28;19924;-44
2022/09/15 14:06:14;;;;;;;;;;;;;;;;;;5090979;28;19974;-43
2022/09/15 14:08:42;;;;;;;;;;;;;;;;;;5092435;28;19947;-43
2022/09/15 14:11:12;;;;;;;;;;;;;;;;;;5092100;28;19928;-45
2022/09/15 14:13:45;;;;;;;;;;;;;;;;;;5091207;28;20395;-43
2022/09/15 14:16:24;;;;;;;;;;;;;;;;;;5092187;28;19935;-43
2022/09/15 14:18:52;;;;;;;;;;;;;;;;;;5092702;28;20406;-45
2022/09/15 14:21:25;;;;;;;;;;;;;;;;;;5092008;28;19928;-43
2022/09/15 14:23:53;;;;;;;;;;;;;;;;;;5092457;28;20406;-43
2022/09/15 14:26:23;;;;;;;;;;;;;;;;;;5092340;28;19967;-44
2022/09/15 14:28:52;;;;;;;;;;;;;;;;;;5092189;28;19924;-43
2022/09/15 14:31:34;;;;;;;;;;;;;;;;;;5092080;28;19928;-43
2022/09/15 14:34:02;;;;;;;;;;;;;;;;;;5092081;28;19959;-43
2022/09/15 14:36:30;;;;;;;;;;;;;;;;;;5095943;28;20368;-48
2022/09/15 14:39:21;;;;;;;;;;;;;;;;;;5095814;28;19971;-42
2022/09/15 14:41:49;;;;;;;;;;;;;;;;;;5092903;28;19924;-43
2022/09/15 14:44:25;;;;;;;;;;;;;;;;;;5095879;28;19928;-45
2022/09/15 14:47:17;;;;;;;;;;;;;;;;;;5095852;28;19931;-45
2022/09/15 14:49:44;;;;;;;;;;;;;;;;;;5095735;28;19966;-44
2022/09/15 14:52:21;;;;;;;;;;;;;;;;;;5095604;28;20330;-43
2022/09/15 14:54:50;;;;;;;;;;;;;;;;;;5094481;28;19928;-43
2022/09/15 14:57:19;;;;;;;;;;;;;;;;;;5095788;28;19924;-43
2022/09/15 14:59:51;;;;;;;;;;;;;;;;;;5095681;28;19931;-42
2022/09/15 15:02:37;;;;;;;;;;;;;;;;;;5095358;28;19959;-45
2022/09/15 15:05:11;;;;;;;;;;;;;;;;;;5095455;28;19924;-43
2022/09/15 15:07:39;;;;;;;;;;;;;;;;;;5095489;28;19963;-44
2022/09/15 15:10:13;;;;;;;;;;;;;;;;;;5095175;28;19925;-49
2022/09/15 15:12:49;;;;;;;;;;;;;;;;;;5093335;28;19928;-43
2022/09/15 15:15:17;;;;;;;;;;;;;;;;;;5095507;28;19971;-43
2022/09/15 15:17:47;;;;;;;;;;;;;;;;;;5095212;28;19931;-50
2022/09/15 15:20:15;;;;;;;;;;;;;;;;;;5095165;28;19935;-45
2022/09/15 15:22:42;;;;;;;;;;;;;;;;;;5094637;28;19939;-44
2022/09/15 15:25:31;;;;;;;;;;;;;;;;;;5094960;28;19924;-43
2022/09/15 15:27:59;;;;;;;;;;;;;;;;;;5095099;28;19974;-43
2022/09/15 15:30:29;;;;;;;;;;;;;;;;;;5095056;28;19924;-43
2022/09/15 15:33:13;;;;;;;;;;;;;;;;;;5094904;28;19924;-43
2022/09/15 15:35:45;;;;;;;;;;;;;;;;;;5095003;28;20408;-43
2022/09/15 15:38:17;;;;;;;;;;;;;;;;;;5094781;28;19970;-45
2022/09/15 15:40:46;;;;;;;;;;;;;;;;;;5094869;28;19931;-43
2022/09/15 15:43:26;;;;;;;;;;;;;;;;;;5094414;28;19928;-43
2022/09/15 15:46:12;;;;;;;;;;;;;;;;;;5093631;28;19935;-43
2022/09/15 15:49:04;;;;;;;;;;;;;;;;;;5094769;28;20011;-43
2022/09/15 15:51:55;;;;;;;;;;;;;;;;;;5094256;28;19924;-43
2022/09/15 15:54:43;;;;;;;;;;;;;;;;;;5094480;28;19970;-45
2022/09/15 15:57:42;;;;;;;;;;;;;;;;;;5094411;28;19928;-49
2022/09/15 16:00:42;;;;;;;;;;;;;;;;;;5094191;28;19928;-46
2022/09/15 16:03:10;;;;;;;;;;;;;;;;;;5094278;28;19924;-48
2022/09/15 16:05:37;;;;;;;;;;;;;;;;;;5094465;28;19924;-47
2022/09/15 16:08:06;;;;;;;;;;;;;;;;;;5094037;28;20283;-46
2022/09/15 16:10:37;;;;;;;;;;;;;;;;;;5093029;28;19928;-46
2022/09/15 16:13:05;;;;;;;;;;;;;;;;;;5093260;28;19990;-49
2022/09/15 16:15:32;;;;;;;;;;;;;;;;;;5094164;28;19924;-52
2022/09/15 16:18:03;;;;;;;;;;;;;;;;;;5094297;28;19928;-50
2022/09/15 16:20:30;;;;;;;;;;;;;;;;;;5094049;28;19997;-51
2022/09/15 16:22:57;;;;;;;;;;;;;;;;;;5094100;28;19924;-50
2022/09/15 16:25:32;;;;;;;;;;;;;;;;;;5094046;28;20341;-50
2022/09/15 16:28:01;;;;;;;;;;;;;;;;;;5092605;28;19967;-49
2022/09/15 16:30:29;;;;;;;;;;;;;;;;;;5093826;28;19924;-50
2022/09/15 16:32:57;;;;;;;;;;;;;;;;;;5093646;28;19924;-47
2022/09/15 16:35:28;;;;;;;;;;;;;;;;;;5094234;28;19924;-49
2022/09/15 16:37:56;;;;;;;;;;;;;;;;;;5092491;28;20442;-46
2022/09/15 16:40:24;;;;;;;;;;;;;;;;;;5093948;28;20015;-51
2022/09/15 16:42:51;;;;;;;;;;;;;;;;;;5092185;28;19967;-44
2022/09/15 16:45:18;;;;;;;;;;;;;;;;;;5093606;28;19931;-51
2022/09/15 16:47:46;;;;;;;;;;;;;;;;;;5093379;28;20322;-46
2022/09/15 16:50:13;;;;;;;;;;;;;;;;;;5093134;28;19924;-50
2022/09/15 16:52:40;;;;;;;;;;;;;;;;;;5093189;28;19928;-50
2022/09/15 16:55:28;;;;;;;;;;;;;;;;;;5093315;28;19924;-49
2022/09/15 16:57:55;;;;;;;;;;;;;;;;;;5093057;28;20299;-50
2022/09/15 17:00:23;;;;;;;;;;;;;;;;;;5093610;28;19924;-50
2022/09/15 17:02:50;;;;;;;;;;;;;;;;;;5093102;28;19928;-48
2022/09/15 17:05:30;;;;;;;;;;;;;;;;;;5093026;28;19993;-48
2022/09/15 17:08:00;;;;;;;;;;;;;;;;;;5092991;28;19924;-48
2022/09/15 17:10:28;;;;;;;;;;;;;;;;;;5093198;28;19977;-43
2022/09/15 17:12:57;;;;;;;;;;;;;;;;;;5093105;28;20295;-50
2022/09/15 17:15:26;;;;;;;;;;;;;;;;;;5093113;28;20371;-45
2022/09/15 17:17:54;;;;;;;;;;;;;;;;;;5092994;28;19932;-51
2022/09/15 17:20:23;;;;;;;;;;;;;;;;;;5093141;28;19928;-50
2022/09/15 17:22:51;;;;;;;;;;;;;;;;;;5091323;28;20295;-50
2022/09/15 17:25:20;;;;;;;;;;;;;;;;;;5092900;28;19993;-47